Home > Products > Valid Products > TAF

000
FTUS43 KFSD 231200 AAA
TAFHON
TAF AMD
KHON 231256Z 2313/2412 14020G28KT P6SM SCT100
      TEMPO 2313/2315 -TSRA OVC070CB
     FM231500 16025G34KT P6SM SCT050 SCT120
     FM232200 17013G25KT P6SM BKN050
     FM240000 12007KT P6SM BKN050
     FM240400 32008KT P6SM BKN150=



000
FTUS43 KFSD 231100
TAFFSD
TAF
KFSD 231137Z 2312/2412 13020G28KT P6SM OVC080
     FM231600 15025G34KT P6SM BKN050
     FM240100 12013KT P6SM BKN050
     FM240300 11010KT 6SM -TSRA BKN040CB
     FM240700 36008KT P6SM BKN070=



000
FTUS43 KFSD 231100
TAFSUX
TAF
KSUX 231137Z 2312/2412 15020G28KT P6SM BKN080
      TEMPO 2312/2314 -SHRA
     FM231600 15025G34KT P6SM OVC120
     FM240200 14014G21KT 6SM -TSRA OVC030CB
     FM240500 08009KT 6SM -TSRA OVC030CB
     FM240900 32010KT P6SM BKN060=



000
FTUS43 KFSD 231100
TAFHON
TAF
KHON 231137Z 2312/2412 14020G28KT P6SM SCT100
     FM231500 16025G34KT P6SM SCT050 SCT120
     FM232200 17013G25KT P6SM BKN050
     FM240000 12007KT P6SM BKN050
     FM240400 32008KT P6SM BKN150=



000
FTUS43 KFSD 230500
TAFSUX
TAF
KSUX 230520Z 2306/2406 14014G21KT P6SM BKN080
     FM230900 15019G30KT P6SM BKN080
     FM231500 15027G39KT P6SM OVC120
     FM232200 16024G34KT P6SM OVC100
     FM240300 14013KT 6SM -TSRA OVC050CB=



000
FTUS43 KFSD 230500
TAFHON
TAF
KHON 230520Z 2306/2406 14018G28KT P6SM OVC100
     FM231400 15026G38KT P6SM BKN100
     FM232000 17013G25KT P6SM SCT050 BKN100
     FM240100 19010KT P6SM BKN050
     FM240300 31010KT P6SM BKN120=



000
FTUS43 KFSD 230500
TAFFSD
TAF
KFSD 230520Z 2306/2406 14017G26KT P6SM OVC100
     FM231400 14027G38KT P6SM OVC100
     FM232200 16025G34KT P6SM OVC080
     FM240200 12010KT P6SM BKN050
      TEMPO 2403/2406 6SM -TSRA BKN040CB=



000
FTUS43 KFSD 222300
TAFFSD
TAF
KFSD 222320Z 2300/2324 14013G19KT P6SM BKN100
     FM230600 14017G26KT P6SM OVC100
     FM231400 14027G38KT P6SM OVC100=



000
FTUS43 KFSD 222300
TAFSUX
TAF
KSUX 222320Z 2300/2324 14011G17KT P6SM BKN120
     FM230400 14014G21KT P6SM BKN080
     FM230900 15019G30KT P6SM BKN080
     FM231500 15027G39KT P6SM OVC120
     FM232200 16024G34KT P6SM OVC100=



000
FTUS43 KFSD 222300
TAFHON
TAF
KHON 222320Z 2300/2324 15015G23KT P6SM SCT100
     FM230200 13016G24KT P6SM OVC100
     FM230600 14020G30KT P6SM OVC100
     FM231400 15026G38KT P6SM BKN100
     FM232000 17015G28KT P6SM BKN100=



000
FTUS43 KFSD 221700
TAFHON
TAF
KHON 221720Z 2218/2318 14014G21KT P6SM SCT100
     FM230200 13016G24KT P6SM OVC100
     FM230500 14020G28KT P6SM OVC100
      TEMPO 2308/2312 -SHRA BKN070
     FM231500 15026G35KT P6SM BKN100=



000
FTUS43 KFSD 221700
TAFSUX
TAF
KSUX 221720Z 2218/2318 14008KT P6SM SKC
     FM222100 14011KT P6SM SCT120
     FM230400 14014G21KT P6SM BKN080 PROB30 2308/2312 -SHRA BKN060
     FM231500 15027G38KT P6SM OVC120=



000
FTUS43 KFSD 221700
TAFFSD
TAF
KFSD 221720Z 2218/2318 15012KT P6SM SCT200
     FM222100 14013G19KT P6SM BKN100
     FM230600 14017G24KT P6SM OVC080 PROB30 2309/2312 -SHRA BKN060
     FM231500 14025G35KT P6SM OVC120=



000
FTUS43 KFSD 221100
TAFHON
TAF
KHON 221120Z 2212/2312 15008KT P6SM SKC
     FM221500 15011KT P6SM SCT200
     FM221900 14014G21KT P6SM SCT100
     FM230200 13016G24KT P6SM OVC100
     FM230500 14020G28KT P6SM OVC100
      TEMPO 2308/2312 -SHRA BKN070=



000
FTUS43 KFSD 221100
TAFSUX
TAF
KSUX 221120Z 2212/2312 VRB03KT P6SM SKC
     FM221500 14008KT P6SM SKC
     FM222100 14011KT P6SM SCT120
     FM230400 14014G21KT P6SM BKN080 PROB30 2308/2312 -SHRA BKN060=



000
FTUS43 KFSD 221100
TAFFSD
TAF
KFSD 221120Z 2212/2312 VRB04KT P6SM SKC
     FM221500 15008KT P6SM SCT200
     FM222100 14013G19KT P6SM BKN100
     FM230600 14017G24KT P6SM OVC080 PROB30 2309/2312 -SHRA BKN060=



000
FTUS43 KFSD 220500
TAFHON
TAF
KHON 220520Z 2206/2306 VRB04KT P6SM SKC
     FM221400 15011KT P6SM SCT200
     FM222200 14016G24KT P6SM BKN120=



000
FTUS43 KFSD 220500
TAFFSD
TAF
KFSD 220520Z 2206/2306 VRB04KT P6SM SKC
     FM221700 15011KT P6SM SCT200
     FM222300 14014G21KT P6SM BKN120=



000
FTUS43 KFSD 220500
TAFSUX
TAF
KSUX 220520Z 2206/2306 35008KT P6SM SKC
     FM220700 VRB03KT P6SM SKC
     FM221900 13010KT P6SM SCT150
     FM230000 13013G19KT P6SM BKN150=



000
FTUS43 KFSD 220200 AAA
TAFSUX
TAF AMD
KSUX 220232Z 2203/2224 34014G22KT P6SM SKC
     FM220330 35010KT P6SM SKC
     FM220700 VRB03KT P6SM SKC
     FM221900 13010KT P6SM SCT150=



000
FTUS43 KFSD 212300
TAFHON
TAF
KHON 212323Z 2200/2224 01008KT P6SM SKC
     FM220300 VRB04KT P6SM SKC
     FM221500 15013KT P6SM SCT200=



000
FTUS43 KFSD 212300
TAFSUX
TAF
KSUX 212323Z 2200/2224 34014G22KT P6SM SKC
     FM220200 35010KT P6SM SKC
     FM220700 VRB03KT P6SM SKC
     FM221900 13010KT P6SM SCT150=



000
FTUS43 KFSD 212300
TAFFSD
TAF
KFSD 212323Z 2200/2224 35014G21KT P6SM SKC
     FM220200 36008KT P6SM SKC
     FM220500 VRB04KT P6SM SKC
     FM221700 15011KT P6SM SCT200=



000
FTUS43 KFSD 212000 AAA
TAFSUX
TAF AMD
KSUX 212053Z 2121/2218 33019G27KT P6SM SKC
     FM220000 34014KT P6SM SKC
     FM220200 35008KT P6SM SKC
     FM220700 01003KT P6SM SKC
     FM221600 13008KT P6SM SCT100=



000
FTUS43 KFSD 211700
TAFHON
TAF
KHON 211724Z 2118/2218 33017G24KT P6SM SKC
     FM220000 34012KT P6SM SKC
     FM220300 VRB04KT P6SM SKC
     FM221500 15012KT P6SM SCT100=



000
FTUS43 KFSD 211700
TAFFSD
TAF
KFSD 211724Z 2118/2218 34019G27KT P6SM SKC
     FM212200 34014G24KT P6SM SKC
     FM220000 35014KT P6SM SKC
     FM220200 35008KT P6SM SKC
     FM220500 02004KT P6SM SKC
     FM221600 15009KT P6SM SCT100=



000
FTUS43 KFSD 211700
TAFSUX
TAF
KSUX 211724Z 2118/2218 35019G27KT P6SM SKC
     FM220000 34014KT P6SM SKC
     FM220200 35008KT P6SM SKC
     FM220700 01003KT P6SM SKC
     FM221600 13008KT P6SM SCT100=



000
FTUS43 KFSD 211100
TAFSUX
TAF
KSUX 211120Z 2112/2212 29010KT P6SM BKN250
     FM211400 35015G23KT P6SM SKC
     FM211600 34019G27KT P6SM SKC
     FM220000 34014KT P6SM SKC
     FM220200 35008KT P6SM SKC
     FM220700 01003KT P6SM SKC=



000
FTUS43 KFSD 211100
TAFFSD
TAF
KFSD 211120Z 2112/2212 34015G23KT P6SM SCT250
     FM211600 34019G27KT P6SM SKC
     FM220000 35014KT P6SM SKC
     FM220200 35008KT P6SM SKC
     FM220500 02004KT P6SM SKC=



000
FTUS43 KFSD 211100
TAFHON
TAF
KHON 211120Z 2112/2212 32010KT P6SM SKC
     FM211400 33017G24KT P6SM SKC
     FM220000 34012KT P6SM SKC
     FM220300 VRB04KT P6SM SKC=



000
FTUS43 KFSD 210500
TAFSUX
TAF
KSUX 210520Z 2106/2206 19007KT P6SM SCT110 BKN200
      TEMPO 2108/2110 -TSRA BKN060CB
     FM211000 24006KT P6SM BKN150
     FM211200 32012G18KT P6SM BKN200
     FM211400 35019G26KT P6SM SKC
     FM220100 36010KT P6SM SKC=



000
FTUS43 KFSD 210500
TAFFSD
TAF
KFSD 210520Z 2106/2206 VRB04KT P6SM SCT080 BKN150
      TEMPO 2106/2108 -TSRA BKN060CB
     FM210900 35015G23KT P6SM BKN200
     FM211400 35019G26KT P6SM SKC
     FM220000 35012KT P6SM SKC
     FM220200 36005KT P6SM SKC=



000
FTUS43 KFSD 210500
TAFHON
TAF
KHON 210520Z 2106/2206 35015G24KT P6SM BKN200
     FM211000 35010KT P6SM SKC
     FM211400 33017G24KT P6SM SKC
     FM212300 34012KT P6SM SKC
     FM220100 36005KT P6SM SKC=



000
FTUS43 KFSD 210400 AAA
TAFFSD
TAF AMD
KFSD 210420Z 2104/2124 VRB04KT P6SM SCT080 BKN150
      TEMPO 2106/2108 -TSRA BKN060CB
     FM210900 35012G18KT P6SM SKC
     FM211400 35018G26KT P6SM SKC=



000
FTUS43 KFSD 210100 AAA
TAFSUX
TAF AMD
KSUX 210104Z 2101/2124 19007KT P6SM SCT080 BKN150
     FM210700 21006KT P6SM SHRA BKN060
     FM211000 32010KT P6SM SCT060 BKN150
     FM211400 35017G26KT P6SM SKC=



000
FTUS43 KFSD 202300
TAFHON
TAF
KHON 202333Z 2100/2124 17007KT P6SM SCT090 BKN200
     FM210200 VRB04KT P6SM SCT080 BKN150
      TEMPO 2102/2104 TSRA BKN060CB
     FM210600 35014G22KT P6SM SCT070
     FM211000 35010KT P6SM SKC
     FM211400 33015G24KT P6SM SKC=



000
FTUS43 KFSD 202300
TAFSUX
TAF
KSUX 202333Z 2100/2124 19010KT P6SM SCT080 OVC150
      TEMPO 2100/2102 TSRA BKN060CB
     FM210200 17006KT P6SM SCT080 BKN150
     FM210700 21006KT P6SM SHRA BKN060
     FM211000 32010KT P6SM SCT060 BKN150
     FM211400 35017G26KT P6SM SKC=



000
FTUS43 KFSD 202300
TAFFSD
TAF
KFSD 202333Z 2100/2124 15005KT P6SM FEW100 SCT250
     FM210500 VRB03KT P6SM SCT070 BKN120
      TEMPO 2105/2107 SHRA BKN070
     FM210800 35012G18KT P6SM SKC
     FM211400 35018G26KT P6SM SKC=



000
FTUS43 KFSD 202200 AAA
TAFSUX
TAF AMD
KSUX 202212Z 2022/2118 19012KT P6SM SCT080 OVC150
      TEMPO 2022/2101 TSRA BKN060CB
     FM210100 17006KT P6SM BKN080
     FM210700 31007KT P6SM -SHRA BKN060
     FM211400 35017G26KT P6SM SKC=



000
FTUS43 KFSD 201700
TAFSUX
TAF
KSUX 201738Z 2018/2118 16008KT P6SM BKN150
     FM202200 19010KT P6SM BKN080
     FM210000 17006KT P6SM BKN080
     FM210700 31007KT P6SM -SHRA BKN060
     FM211400 35017G26KT P6SM SKC=



000
FTUS43 KFSD 201700
TAFHON
TAF
KHON 201738Z 2018/2118 14009KT P6SM FEW150
     FM210100 VRB03KT P6SM BKN070
     FM210500 34010KT P6SM SCT070
     FM211400 33015G24KT P6SM SKC=



000
FTUS43 KFSD 201700
TAFFSD
TAF
KFSD 201738Z 2018/2118 12010KT P6SM SCT120
     FM210000 15005KT P6SM SCT070 BKN100
     FM210400 VRB03KT P6SM BKN070
     FM210800 34009KT P6SM SCT070
     FM211400 35017G26KT P6SM SKC=



    US Dept of Commerce
    National Oceanic and Atmospheric Administration
    National Weather Service
    1325 East West Highway
    Silver Spring, MD 20910
    Page Author: NWS Internet Services Team
Disclaimer
Information Quality
Credits
Glossary
Privacy Policy
Freedom of Information Act (FOIA)
About Us
Career Opportunities